Lawrenceville, Arkansas
Current Conditions -  °F | °C
As of 4:35 AM on Sunday 21 Dec 2014 (Local Time) from KSGT Reporting Station
NA  
Wind Chill: -2°   Ceiling: NA
Heat Index:   Visibility: NA
Dew Point: -1°   Wind: 7mph
Humidity: 87%   Direction: 40°NE
Pressure: 30.19"   Gusts: NA
Location:  34.5919°N, 91.1409°W
Report Text: KSGT 211035Z 04006KT 01/M01 A3019 RMK AO1
Loading
Personal Weather Stations






























Interactive Weather Map New forecast layout! Learn more

10-Day Weather Forecast

Advertisements
Track Severe Weather on mobile